Aviation Digital Data Service (ADDS)

Output produced by METARs form (1401 UTC 21 August 2019)
found at http://www.aviationweather.gov/metar/data/
 
METAR text: KORF 211351Z 22012KT 10SM CLR 28/24 A3003 RMK AO2 SLP170 T02830239
Conditions at: KORF (NORFOLK , VA, US) observed 1351 UTC 21 August 2019
Temperature: 28.3°C (83°F)
Dewpoint: 23.9°C (75°F) [RH = 77%]
Pressure (altimeter): 30.03 inches Hg (1017.0 mb)
[Sea-level pressure: 1017.0 mb]
Winds: from the SW (220 degrees) at 14 MPH (12 knots; 6.2 m/s)
Visibility: 10 or more miles (16+ km)
Ceiling: at least 12,000 feet AGL
Clouds: sky clear below 12,000 feet AGL
Weather: no significant weather observed at this time

METAR text: KORF 211251Z 21009KT 10SM CLR 27/24 A3004 RMK AO2 SLP173 T02670239
Conditions at: KORF (NORFOLK , VA, US) observed 1251 UTC 21 August 2019
Temperature: 26.7°C (80°F)
Dewpoint: 23.9°C (75°F) [RH = 85%]
Pressure (altimeter): 30.04 inches Hg (1017.4 mb)
[Sea-level pressure: 1017.3 mb]
Winds: from the SSW (210 degrees) at 10 MPH (9 knots; 4.6 m/s)
Visibility: 10 or more miles (16+ km)
Ceiling: at least 12,000 feet AGL
Clouds: sky clear below 12,000 feet AGL
Weather: no significant weather observed at this time

METAR text: KORF 211151Z 23009KT 10SM CLR 26/24 A3005 RMK AO2 SLP174 70007 T02610239 10267 20244 51006
Conditions at: KORF (NORFOLK , VA, US) observed 1151 UTC 21 August 2019
Temperature: 26.1°C (79°F)
Dewpoint: 23.9°C (75°F) [RH = 88%]
Pressure (altimeter): 30.05 inches Hg (1017.7 mb)
[Sea-level pressure: 1017.4 mb]
Winds: from the SW (230 degrees) at 10 MPH (9 knots; 4.6 m/s)
Visibility: 10 or more miles (16+ km)
Ceiling: at least 12,000 feet AGL
Clouds: sky clear below 12,000 feet AGL
Weather: no significant weather observed at this time

METAR text: KORF 211051Z 22009KT 10SM CLR 25/23 A3004 RMK AO2 SLP172 T02500233
Conditions at: KORF (NORFOLK , VA, US) observed 1051 UTC 21 August 2019
Temperature: 25.0°C (77°F)
Dewpoint: 23.3°C (74°F) [RH = 90%]
Pressure (altimeter): 30.04 inches Hg (1017.4 mb)
[Sea-level pressure: 1017.2 mb]
Winds: from the SW (220 degrees) at 10 MPH (9 knots; 4.6 m/s)
Visibility: 10 or more miles (16+ km)
Ceiling: at least 12,000 feet AGL
Clouds: sky clear below 12,000 feet AGL
Weather: no significant weather observed at this time

METAR text: KORF 210951Z 21008KT 10SM CLR 25/23 A3004 RMK AO2 SLP171 T02500228
Conditions at: KORF (NORFOLK , VA, US) observed 0951 UTC 21 August 2019
Temperature: 25.0°C (77°F)
Dewpoint: 22.8°C (73°F) [RH = 88%]
Pressure (altimeter): 30.04 inches Hg (1017.4 mb)
[Sea-level pressure: 1017.1 mb]
Winds: from the SSW (210 degrees) at 9 MPH (8 knots; 4.1 m/s)
Visibility: 10 or more miles (16+ km)
Ceiling: at least 12,000 feet AGL
Clouds: sky clear below 12,000 feet AGL
Weather: no significant weather observed at this time

METAR text: KORF 210851Z 18005KT 10SM CLR 25/23 A3003 RMK AO2 SLP168 T02500228 56016
Conditions at: KORF (NORFOLK , VA, US) observed 0851 UTC 21 August 2019
Temperature: 25.0°C (77°F)
Dewpoint: 22.8°C (73°F) [RH = 88%]
Pressure (altimeter): 30.03 inches Hg (1017.0 mb)
[Sea-level pressure: 1016.8 mb]
Winds: from the S (180 degrees) at 6 MPH (5 knots; 2.6 m/s)
Visibility: 10 or more miles (16+ km)
Ceiling: at least 12,000 feet AGL
Clouds: sky clear below 12,000 feet AGL
Weather: no significant weather observed at this time

METAR text: KORF 210751Z 19005KT 10SM CLR 24/23 A3003 RMK AO2 SLP169 T02440228
Conditions at: KORF (NORFOLK , VA, US) observed 0751 UTC 21 August 2019
Temperature: 24.4°C (76°F)
Dewpoint: 22.8°C (73°F) [RH = 91%]
Pressure (altimeter): 30.03 inches Hg (1017.0 mb)
[Sea-level pressure: 1016.9 mb]
Winds: from the S (190 degrees) at 6 MPH (5 knots; 2.6 m/s)
Visibility: 10 or more miles (16+ km)
Ceiling: at least 12,000 feet AGL
Clouds: sky clear below 12,000 feet AGL
Weather: no significant weather observed at this time

METAR text: KORF 210651Z 00000KT 10SM CLR 26/22 A3005 RMK AO2 SLP175 T02560222
Conditions at: KORF (NORFOLK , VA, US) observed 0651 UTC 21 August 2019
Temperature: 25.6°C (78°F)
Dewpoint: 22.2°C (72°F) [RH = 82%]
Pressure (altimeter): 30.05 inches Hg (1017.7 mb)
[Sea-level pressure: 1017.5 mb]
Winds: calm
Visibility: 10 or more miles (16+ km)
Ceiling: at least 12,000 feet AGL
Clouds: sky clear below 12,000 feet AGL
Weather: no significant weather observed at this time

METAR text: KORF 210551Z 34005KT 10SM SCT050 BKN060 26/23 A3008 RMK AO2 SLP184 60004 T02610233 10261 20239 51005
Conditions at: KORF (NORFOLK , VA, US) observed 0551 UTC 21 August 2019
Temperature: 26.1°C (79°F)
Dewpoint: 23.3°C (74°F) [RH = 85%]
Pressure (altimeter): 30.08 inches Hg (1018.7 mb)
[Sea-level pressure: 1018.4 mb]
Winds: from the NNW (340 degrees) at 6 MPH (5 knots; 2.6 m/s)
Visibility: 10 or more miles (16+ km)
Ceiling: 6000 feet AGL
Clouds: scattered clouds at 5000 feet AGL
broken clouds at 6000 feet AGL
Weather: no significant weather observed at this time

METAR text: KORF 210451Z 00000KT 10SM FEW047 26/23 A3007 RMK AO2 SLP183 T02610233 403500239
Conditions at: KORF (NORFOLK , VA, US) observed 0451 UTC 21 August 2019
Temperature: 26.1°C (79°F)
Dewpoint: 23.3°C (74°F) [RH = 85%]
Pressure (altimeter): 30.07 inches Hg (1018.4 mb)
[Sea-level pressure: 1018.3 mb]
Winds: calm
Visibility: 10 or more miles (16+ km)
Ceiling: at least 12,000 feet AGL
Clouds: few clouds at 4700 feet AGL
Weather: no significant weather observed at this time

METAR text: KORF 210351Z 33003KT 10SM FEW120 25/23 A3007 RMK AO2 SLP182 T02500228
Conditions at: KORF (NORFOLK , VA, US) observed 0351 UTC 21 August 2019
Temperature: 25.0°C (77°F)
Dewpoint: 22.8°C (73°F) [RH = 88%]
Pressure (altimeter): 30.07 inches Hg (1018.4 mb)
[Sea-level pressure: 1018.2 mb]
Winds: from the NNW (330 degrees) at 3 MPH (3 knots; 1.5 m/s)
Visibility: 10 or more miles (16+ km)
Ceiling: at least 12,000 feet AGL
Clouds: few clouds at 12000 feet AGL
Weather: no significant weather observed at this time

METAR text: KORF 210251Z 16003KT 10SM CLR 24/23 A3006 RMK AO2 RAE15 SLP179 P0000 60004 T02390228 58003
Conditions at: KORF (NORFOLK , VA, US) observed 0251 UTC 21 August 2019
Temperature: 23.9°C (75°F)
Dewpoint: 22.8°C (73°F) [RH = 94%]
Pressure (altimeter): 30.06 inches Hg (1018.0 mb)
[Sea-level pressure: 1017.9 mb]
Winds: from the SSE (160 degrees) at 3 MPH (3 knots; 1.5 m/s)
Visibility: 10 or more miles (16+ km)
Ceiling: at least 12,000 feet AGL
Clouds: sky clear below 12,000 feet AGL
Weather: no significant weather observed at this time

METAR text: KORF 210151Z 19003KT 10SM -RA CLR 24/22 A3006 RMK AO2 SLP178 P0004 T02390217
Conditions at: KORF (NORFOLK , VA, US) observed 0151 UTC 21 August 2019
Temperature: 23.9°C (75°F)
Dewpoint: 21.7°C (71°F) [RH = 88%]
Pressure (altimeter): 30.06 inches Hg (1018.0 mb)
[Sea-level pressure: 1017.8 mb]
Winds: from the S (190 degrees) at 3 MPH (3 knots; 1.5 m/s)
Visibility: 10 or more miles (16+ km)
Ceiling: at least 12,000 feet AGL
Clouds: sky clear below 12,000 feet AGL
Weather: -RA  (light rain)

METAR text: KORF 210051Z 21009KT 10SM -RA FEW085 FEW100 25/21 A3008 RMK AO2 RAB44 SLP186 P0000 T02500211
Conditions at: KORF (NORFOLK , VA, US) observed 0051 UTC 21 August 2019
Temperature: 25.0°C (77°F)
Dewpoint: 21.1°C (70°F) [RH = 79%]
Pressure (altimeter): 30.08 inches Hg (1018.7 mb)
[Sea-level pressure: 1018.6 mb]
Winds: from the SSW (210 degrees) at 10 MPH (9 knots; 4.6 m/s)
Visibility: 10 or more miles (16+ km)
Ceiling: at least 12,000 feet AGL
Clouds: few clouds at 8500 feet AGL
few clouds at 10000 feet AGL
Weather: -RA  (light rain)

METAR text: KORF 202351Z 18008G16KT 160V220 10SM CLR 26/21 A3007 RMK AO2 WSHFT 2238 RAE2257 SLP181 P0000 60003 T02610206 10350 20261 53013
Conditions at: KORF (NORFOLK , VA, US) observed 2351 UTC 20 August 2019
Temperature: 26.1°C (79°F)
Dewpoint: 20.6°C (69°F) [RH = 72%]
Pressure (altimeter): 30.07 inches Hg (1018.4 mb)
[Sea-level pressure: 1018.1 mb]
Winds: from the S (180 degrees) at 9 MPH (8 knots; 4.1 m/s)
gusting to 18 MPH (16 knots; 8.2 m/s)
Visibility: 10 or more miles (16+ km)
Ceiling: at least 12,000 feet AGL
Clouds: sky clear below 12,000 feet AGL
Weather: no significant weather observed at this time

METAR text: KORF 202258Z 13015G21KT 10SM FEW024 BKN035 OVC042 27/19 A3004 RMK AO2 WSHFT 2238 RAE57 P0000 T02670194
Conditions at: KORF (NORFOLK , VA, US) observed 2258 UTC 20 August 2019
Temperature: 26.7°C (80°F)
Dewpoint: 19.4°C (67°F) [RH = 64%]
Pressure (altimeter): 30.04 inches Hg (1017.4 mb)
Winds: from the SE (130 degrees) at 17 MPH (15 knots; 7.7 m/s)
gusting to 24 MPH (21 knots; 10.8 m/s)
Visibility: 10 or more miles (16+ km)
Ceiling: 3500 feet AGL
Clouds: few clouds at 2400 feet AGL
broken clouds at 3500 feet AGL
overcast cloud deck at 4200 feet AGL
Weather: no significant weather observed at this time

METAR text: KORF 202251Z 15012KT 6SM -RA FEW024 FEW030 OVC038 27/21 A3005 RMK AO2 WSHFT 2237 RAB41 SLP174 P0003 T02720206
Conditions at: KORF (NORFOLK , VA, US) observed 2251 UTC 20 August 2019
Temperature: 27.2°C (81°F)
Dewpoint: 20.6°C (69°F) [RH = 67%]
Pressure (altimeter): 30.05 inches Hg (1017.7 mb)
[Sea-level pressure: 1017.4 mb]
Winds: from the SSE (150 degrees) at 14 MPH (12 knots; 6.2 m/s)
Visibility: 6 miles (10 km)
Ceiling: 3800 feet AGL
Clouds: few clouds at 2400 feet AGL
few clouds at 3000 feet AGL
overcast cloud deck at 3800 feet AGL
Weather: -RA  (light rain)

METAR text: KORF 202158Z VRB04KT 10SM CLR 31/25 A3003 RMK AO2 T03060250
Conditions at: KORF (NORFOLK , VA, US) observed 2158 UTC 20 August 2019
Temperature: 30.6°C (87°F)
Dewpoint: 25.0°C (77°F) [RH = 72%]
Pressure (altimeter): 30.03 inches Hg (1017.0 mb)
Winds: variable direction winds at 5 MPH (4 knots; 2.1 m/s)
Visibility: 10 or more miles (16+ km)
Ceiling: at least 12,000 feet AGL
Clouds: sky clear below 12,000 feet AGL
Weather: no significant weather observed at this time

METAR text: KORF 202151Z 04004KT 10SM CLR 31/24 A3002 RMK AO2 SLP166 T03060244
Conditions at: KORF (NORFOLK , VA, US) observed 2151 UTC 20 August 2019
Temperature: 30.6°C (87°F)
Dewpoint: 24.4°C (76°F) [RH = 70%]
Pressure (altimeter): 30.02 inches Hg (1016.7 mb)
[Sea-level pressure: 1016.6 mb]
Winds: from the NE (40 degrees) at 5 MPH (4 knots; 2.1 m/s)
Visibility: 10 or more miles (16+ km)
Ceiling: at least 12,000 feet AGL
Clouds: sky clear below 12,000 feet AGL
Weather: no significant weather observed at this time

METAR text: KORF 202051Z 25005KT 10SM FEW050 33/23 A3003 RMK AO2 SLP168 T03280228 56014
Conditions at: KORF (NORFOLK , VA, US) observed 2051 UTC 20 August 2019
Temperature: 32.8°C (91°F)
Dewpoint: 22.8°C (73°F) [RH = 56%]
Pressure (altimeter): 30.03 inches Hg (1017.0 mb)
[Sea-level pressure: 1016.8 mb]
Winds: from the WSW (250 degrees) at 6 MPH (5 knots; 2.6 m/s)
Visibility: 10 or more miles (16+ km)
Ceiling: at least 12,000 feet AGL
Clouds: few clouds at 5000 feet AGL
Weather: no significant weather observed at this time

METAR text: KORF 201951Z 10SM CLR 34/23 A3003 RMK AO2 SLP170 T03390233
Conditions at: KORF (NORFOLK , VA, US) observed 1951 UTC 20 August 2019
Temperature: 33.9°C (93°F)
Dewpoint: 23.3°C (74°F) [RH = 54%]
Pressure (altimeter): 30.03 inches Hg (1017.0 mb)
[Sea-level pressure: 1017.0 mb]
Winds: missing
Visibility: 10 or more miles (16+ km)
Ceiling: at least 12,000 feet AGL
Clouds: sky clear below 12,000 feet AGL
Weather: no significant weather observed at this time

METAR text: KORF 201851Z 02006KT 10SM CLR 32/24 A3005 RMK AO2 SLP174 T03170239
Conditions at: KORF (NORFOLK , VA, US) observed 1851 UTC 20 August 2019
Temperature: 31.7°C (89°F)
Dewpoint: 23.9°C (75°F) [RH = 63%]
Pressure (altimeter): 30.05 inches Hg (1017.7 mb)
[Sea-level pressure: 1017.4 mb]
Winds: from the NNE (20 degrees) at 7 MPH (6 knots; 3.1 m/s)
Visibility: 10 or more miles (16+ km)
Ceiling: at least 12,000 feet AGL
Clouds: sky clear below 12,000 feet AGL
Weather: no significant weather observed at this time

METAR text: KORF 201754Z 24005KT 10SM CLR 32/24 A3007 RMK AO2 T03220239
Conditions at: KORF (NORFOLK , VA, US) observed 1754 UTC 20 August 2019
Temperature: 32.2°C (90°F)
Dewpoint: 23.9°C (75°F) [RH = 62%]
Pressure (altimeter): 30.07 inches Hg (1018.4 mb)
Winds: from the WSW (240 degrees) at 6 MPH (5 knots; 2.6 m/s)
Visibility: 10 or more miles (16+ km)
Ceiling: at least 12,000 feet AGL
Clouds: sky clear below 12,000 feet AGL
Weather: no significant weather observed at this time

METAR text: KORF 201751Z 05007KT 10SM CLR 32/24 A3007 RMK AO2 SLP182 T03170239 10339 20261 58008
Conditions at: KORF (NORFOLK , VA, US) observed 1751 UTC 20 August 2019
Temperature: 31.7°C (89°F)
Dewpoint: 23.9°C (75°F) [RH = 63%]
Pressure (altimeter): 30.07 inches Hg (1018.4 mb)
[Sea-level pressure: 1018.2 mb]
Winds: from the NE (50 degrees) at 8 MPH (7 knots; 3.6 m/s)
Visibility: 10 or more miles (16+ km)
Ceiling: at least 12,000 feet AGL
Clouds: sky clear below 12,000 feet AGL
Weather: no significant weather observed at this time

METAR text: KORF 201651Z VRB04KT 10SM CLR 33/22 A3008 RMK AO2 SLP185 T03280222
Conditions at: KORF (NORFOLK , VA, US) observed 1651 UTC 20 August 2019
Temperature: 32.8°C (91°F)
Dewpoint: 22.2°C (72°F) [RH = 54%]
Pressure (altimeter): 30.08 inches Hg (1018.7 mb)
[Sea-level pressure: 1018.5 mb]
Winds: variable direction winds at 5 MPH (4 knots; 2.1 m/s)
Visibility: 10 or more miles (16+ km)
Ceiling: at least 12,000 feet AGL
Clouds: sky clear below 12,000 feet AGL
Weather: no significant weather observed at this time

METAR text: KORF 201551Z 25004KT 10SM CLR 32/22 A3009 RMK AO2 SLP188 T03220222
Conditions at: KORF (NORFOLK , VA, US) observed 1551 UTC 20 August 2019
Temperature: 32.2°C (90°F)
Dewpoint: 22.2°C (72°F) [RH = 56%]
Pressure (altimeter): 30.09 inches Hg (1019.0 mb)
[Sea-level pressure: 1018.8 mb]
Winds: from the WSW (250 degrees) at 5 MPH (4 knots; 2.1 m/s)
Visibility: 10 or more miles (16+ km)
Ceiling: at least 12,000 feet AGL
Clouds: sky clear below 12,000 feet AGL
Weather: no significant weather observed at this time

METAR text: KORF 201451Z 24004KT 10SM CLR 29/22 A3009 RMK AO2 SLP190 T02940217 53003
Conditions at: KORF (NORFOLK , VA, US) observed 1451 UTC 20 August 2019
Temperature: 29.4°C (85°F)
Dewpoint: 21.7°C (71°F) [RH = 63%]
Pressure (altimeter): 30.09 inches Hg (1019.0 mb)
[Sea-level pressure: 1019.0 mb]
Winds: from the WSW (240 degrees) at 5 MPH (4 knots; 2.1 m/s)
Visibility: 10 or more miles (16+ km)
Ceiling: at least 12,000 feet AGL
Clouds: sky clear below 12,000 feet AGL
Weather: no significant weather observed at this time

METAR text: KORF 201351Z 23005KT 10SM CLR 29/22 A3009 RMK AO2 SLP187 T02890217
Conditions at: KORF (NORFOLK , VA, US) observed 1351 UTC 20 August 2019
Temperature: 28.9°C (84°F)
Dewpoint: 21.7°C (71°F) [RH = 65%]
Pressure (altimeter): 30.09 inches Hg (1019.0 mb)
[Sea-level pressure: 1018.7 mb]
Winds: from the SW (230 degrees) at 6 MPH (5 knots; 2.6 m/s)
Visibility: 10 or more miles (16+ km)
Ceiling: at least 12,000 feet AGL
Clouds: sky clear below 12,000 feet AGL
Weather: no significant weather observed at this time

METAR text: KORF 201251Z 24005KT 10SM CLR 28/21 A3009 RMK AO2 SLP188 T02780211
Conditions at: KORF (NORFOLK , VA, US) observed 1251 UTC 20 August 2019
Temperature: 27.8°C (82°F)
Dewpoint: 21.1°C (70°F) [RH = 67%]
Pressure (altimeter): 30.09 inches Hg (1019.0 mb)
[Sea-level pressure: 1018.8 mb]
Winds: from the WSW (240 degrees) at 6 MPH (5 knots; 2.6 m/s)
Visibility: 10 or more miles (16+ km)
Ceiling: at least 12,000 feet AGL
Clouds: sky clear below 12,000 feet AGL
Weather: no significant weather observed at this time

METAR text: KORF 201151Z 23005KT 10SM CLR 26/21 A3008 RMK AO2 SLP187 T02610211 10267 20244 51012
Conditions at: KORF (NORFOLK , VA, US) observed 1151 UTC 20 August 2019
Temperature: 26.1°C (79°F)
Dewpoint: 21.1°C (70°F) [RH = 74%]
Pressure (altimeter): 30.08 inches Hg (1018.7 mb)
[Sea-level pressure: 1018.7 mb]
Winds: from the SW (230 degrees) at 6 MPH (5 knots; 2.6 m/s)
Visibility: 10 or more miles (16+ km)
Ceiling: at least 12,000 feet AGL
Clouds: sky clear below 12,000 feet AGL
Weather: no significant weather observed at this time

METAR text: KORF 201051Z 22005KT 10SM CLR 24/21 A3008 RMK AO2 SLP187 T02440206
Conditions at: KORF (NORFOLK , VA, US) observed 1051 UTC 20 August 2019
Temperature: 24.4°C (76°F)
Dewpoint: 20.6°C (69°F) [RH = 79%]
Pressure (altimeter): 30.08 inches Hg (1018.7 mb)
[Sea-level pressure: 1018.7 mb]
Winds: from the SW (220 degrees) at 6 MPH (5 knots; 2.6 m/s)
Visibility: 10 or more miles (16+ km)
Ceiling: at least 12,000 feet AGL
Clouds: sky clear below 12,000 feet AGL
Weather: no significant weather observed at this time

METAR text: KORF 200951Z 24004KT 10SM CLR 26/21 A3007 RMK AO2 SLP181 T02560206
Conditions at: KORF (NORFOLK , VA, US) observed 0951 UTC 20 August 2019
Temperature: 25.6°C (78°F)
Dewpoint: 20.6°C (69°F) [RH = 74%]
Pressure (altimeter): 30.07 inches Hg (1018.4 mb)
[Sea-level pressure: 1018.1 mb]
Winds: from the WSW (240 degrees) at 5 MPH (4 knots; 2.1 m/s)
Visibility: 10 or more miles (16+ km)
Ceiling: at least 12,000 feet AGL
Clouds: sky clear below 12,000 feet AGL
Weather: no significant weather observed at this time

METAR text: KORF 200851Z 24007KT 10SM CLR 26/20 A3005 RMK AO2 SLP175 T02560200 53000
Conditions at: KORF (NORFOLK , VA, US) observed 0851 UTC 20 August 2019
Temperature: 25.6°C (78°F)
Dewpoint: 20.0°C (68°F) [RH = 71%]
Pressure (altimeter): 30.05 inches Hg (1017.7 mb)
[Sea-level pressure: 1017.5 mb]
Winds: from the WSW (240 degrees) at 8 MPH (7 knots; 3.6 m/s)
Visibility: 10 or more miles (16+ km)
Ceiling: at least 12,000 feet AGL
Clouds: sky clear below 12,000 feet AGL
Weather: no significant weather observed at this time

METAR text: KORF 200751Z 24008KT 10SM CLR 26/20 A3005 RMK AO2 SLP173 T02560200
Conditions at: KORF (NORFOLK , VA, US) observed 0751 UTC 20 August 2019
Temperature: 25.6°C (78°F)
Dewpoint: 20.0°C (68°F) [RH = 71%]
Pressure (altimeter): 30.05 inches Hg (1017.7 mb)
[Sea-level pressure: 1017.3 mb]
Winds: from the WSW (240 degrees) at 9 MPH (8 knots; 4.1 m/s)
Visibility: 10 or more miles (16+ km)
Ceiling: at least 12,000 feet AGL
Clouds: sky clear below 12,000 feet AGL
Weather: no significant weather observed at this time

METAR text: KORF 200651Z 22009KT 10SM CLR 26/20 A3005 RMK AO2 SLP174 T02560200
Conditions at: KORF (NORFOLK , VA, US) observed 0651 UTC 20 August 2019
Temperature: 25.6°C (78°F)
Dewpoint: 20.0°C (68°F) [RH = 71%]
Pressure (altimeter): 30.05 inches Hg (1017.7 mb)
[Sea-level pressure: 1017.4 mb]
Winds: from the SW (220 degrees) at 10 MPH (9 knots; 4.6 m/s)
Visibility: 10 or more miles (16+ km)
Ceiling: at least 12,000 feet AGL
Clouds: sky clear below 12,000 feet AGL
Weather: no significant weather observed at this time

METAR text: KORF 200551Z 23009KT 10SM CLR 27/20 A3005 RMK AO2 SLP175 T02670200 10306 20261 51006
Conditions at: KORF (NORFOLK , VA, US) observed 0551 UTC 20 August 2019
Temperature: 26.7°C (80°F)
Dewpoint: 20.0°C (68°F) [RH = 67%]
Pressure (altimeter): 30.05 inches Hg (1017.7 mb)
[Sea-level pressure: 1017.5 mb]
Winds: from the SW (230 degrees) at 10 MPH (9 knots; 4.6 m/s)
Visibility: 10 or more miles (16+ km)
Ceiling: at least 12,000 feet AGL
Clouds: sky clear below 12,000 feet AGL
Weather: no significant weather observed at this time

METAR text: KORF 200451Z 22007KT 10SM CLR 27/21 A3005 RMK AO2 SLP174 T02720211 403560239
Conditions at: KORF (NORFOLK , VA, US) observed 0451 UTC 20 August 2019
Temperature: 27.2°C (81°F)
Dewpoint: 21.1°C (70°F) [RH = 69%]
Pressure (altimeter): 30.05 inches Hg (1017.7 mb)
[Sea-level pressure: 1017.4 mb]
Winds: from the SW (220 degrees) at 8 MPH (7 knots; 3.6 m/s)
Visibility: 10 or more miles (16+ km)
Ceiling: at least 12,000 feet AGL
Clouds: sky clear below 12,000 feet AGL
Weather: no significant weather observed at this time

METAR text: KORF 200351Z 23006KT 10SM CLR 28/23 A3005 RMK AO2 SLP174 T02830228
Conditions at: KORF (NORFOLK , VA, US) observed 0351 UTC 20 August 2019
Temperature: 28.3°C (83°F)
Dewpoint: 22.8°C (73°F) [RH = 72%]
Pressure (altimeter): 30.05 inches Hg (1017.7 mb)
[Sea-level pressure: 1017.4 mb]
Winds: from the SW (230 degrees) at 7 MPH (6 knots; 3.1 m/s)
Visibility: 10 or more miles (16+ km)
Ceiling: at least 12,000 feet AGL
Clouds: sky clear below 12,000 feet AGL
Weather: no significant weather observed at this time

METAR text: KORF 200251Z 21010KT 10SM CLR 29/24 A3003 RMK AO2 SLP169 T02890239 50014
Conditions at: KORF (NORFOLK , VA, US) observed 0251 UTC 20 August 2019
Temperature: 28.9°C (84°F)
Dewpoint: 23.9°C (75°F) [RH = 74%]
Pressure (altimeter): 30.03 inches Hg (1017.0 mb)
[Sea-level pressure: 1016.9 mb]
Winds: from the SSW (210 degrees) at 12 MPH (10 knots; 5.1 m/s)
Visibility: 10 or more miles (16+ km)
Ceiling: at least 12,000 feet AGL
Clouds: sky clear below 12,000 feet AGL
Weather: no significant weather observed at this time

Forecast for: KORF (NORFOLK , VA, US)
Text: KORF 211120Z 2112/2212 22011KT P6SM SCT100 BKN250
Forecast period: 1200 to 1700 UTC 21 August 2019
Forecast type: FROM: standard forecast or significant change
Winds: from the SW (220 degrees) at 13 MPH (11 knots; 5.7 m/s)
Visibility: 6 or more miles 10+ km)
Ceiling: 25000 feet AGL
Clouds: scattered clouds at 10000 feet AGL
broken clouds at 25000 feet AGL
Weather: no significant weather forecast for this period
Text: FM211700 21012G20KT P6SM VCSH BKN050
Forecast period: 1700 UTC 21 August 2019 to 0000 UTC 22 August 2019
Forecast type: FROM: standard forecast or significant change
Winds: from the SSW (210 degrees) at 14 MPH (12 knots; 6.2 m/s)
gusting to 23 MPH (20 knots; 10.3 m/s)
Visibility: 6 or more miles 10+ km)
Ceiling: 5000 feet AGL
Clouds: broken clouds at 5000 feet AGL
Weather: VCSH  (showers in vicinity)
Text: FM220000 21010KT P6SM BKN120
Forecast period: 0000 to 1200 UTC 22 August 2019
Forecast type: FROM: standard forecast or significant change
Winds: from the SSW (210 degrees) at 12 MPH (10 knots; 5.1 m/s)
Visibility: 6 or more miles 10+ km)
Ceiling: 12000 feet AGL
Clouds: broken clouds at 12000 feet AGL
Weather: no significant weather forecast for this period